createdAt,value
2023-03-07T00:00:12.513Z,28.66
2023-03-07T00:02:39.002Z,28.61
2023-03-07T00:05:05.515Z,28.80
2023-03-07T00:07:31.849Z,28.60
2023-03-07T00:09:58.364Z,28.79
2023-03-07T00:12:24.667Z,28.74
2023-03-07T00:14:50.984Z,28.58
2023-03-07T00:17:17.548Z,28.58
2023-03-07T00:19:43.850Z,28.48
2023-03-07T00:22:10.946Z,28.55
2023-03-07T00:24:38.196Z,28.62
2023-03-07T00:27:04.619Z,28.51
2023-03-07T00:29:30.940Z,28.74
2023-03-07T00:31:57.261Z,28.72
2023-03-07T00:34:23.905Z,28.70
2023-03-07T00:36:50.283Z,28.63
2023-03-07T00:39:16.664Z,28.64
2023-03-07T00:41:42.985Z,28.65
2023-03-07T00:44:09.377Z,28.65
2023-03-07T00:46:35.694Z,28.71
2023-03-07T00:49:02.029Z,28.75
2023-03-07T00:51:28.368Z,28.80
2023-03-07T00:53:54.729Z,28.77
2023-03-07T00:56:24.762Z,28.71
2023-03-07T00:58:51.143Z,28.91
2023-03-07T01:01:18.368Z,28.96
2023-03-07T01:03:44.699Z,28.82
2023-03-07T01:06:14.349Z,28.96
2023-03-07T01:08:40.964Z,28.79
2023-03-07T01:11:07.289Z,28.92
2023-03-07T01:13:33.811Z,28.92
2023-03-07T01:16:09.075Z,29.00
2023-03-07T01:18:35.447Z,28.97
2023-03-07T01:21:01.765Z,28.71
2023-03-07T01:23:28.086Z,29.04
2023-03-07T01:25:54.387Z,28.85
2023-03-07T01:28:20.717Z,28.96
2023-03-07T01:30:56.047Z,28.84
2023-03-07T01:33:22.370Z,29.01
2023-03-07T01:35:48.700Z,28.92
2023-03-07T01:38:15.024Z,29.01
2023-03-07T01:40:41.331Z,28.98
2023-03-07T01:43:23.339Z,28.78
2023-03-07T01:45:49.663Z,28.83
2023-03-07T01:48:16.254Z,28.89
2023-03-07T01:50:42.584Z,28.94
2023-03-07T01:53:09.225Z,29.01
2023-03-07T01:55:35.572Z,28.94
2023-03-07T01:58:12.972Z,28.94
2023-03-07T02:00:40.203Z,28.81
2023-03-07T02:03:09.217Z,28.84
2023-03-07T02:05:38.071Z,28.89
2023-03-07T02:08:04.392Z,29.05
2023-03-07T02:10:30.926Z,28.98
2023-03-07T02:12:57.697Z,28.97
2023-03-07T02:15:24.290Z,29.17
2023-03-07T02:17:50.848Z,29.12
2023-03-07T02:20:29.324Z,29.04
2023-03-07T02:22:55.888Z,29.00
2023-03-07T02:25:28.744Z,29.03
2023-03-07T02:27:55.283Z,28.97
2023-03-07T02:30:21.599Z,29.12
2023-03-07T02:32:47.907Z,29.07
2023-03-07T02:35:20.845Z,29.05
2023-03-07T02:37:47.303Z,29.11
2023-03-07T02:40:14.410Z,28.95
2023-03-07T02:42:41.094Z,29.03
2023-03-07T02:45:10.023Z,29.08
2023-03-07T02:47:36.670Z,29.20
2023-03-07T02:50:03.274Z,29.09
2023-03-07T02:52:29.806Z,29.19
2023-03-07T02:54:56.230Z,29.03
2023-03-07T02:57:22.553Z,29.08
2023-03-07T02:59:48.900Z,29.08
2023-03-07T03:02:15.213Z,28.96
2023-03-07T03:04:41.630Z,29.02
2023-03-07T03:07:07.970Z,29.02
2023-03-07T03:09:34.315Z,29.09
2023-03-07T03:12:00.691Z,29.14
2023-03-07T03:14:27.079Z,29.17
2023-03-07T03:16:53.453Z,29.11
2023-03-07T03:19:19.833Z,29.01
2023-03-07T03:21:46.138Z,29.00
2023-03-07T03:24:12.463Z,29.07
2023-03-07T03:26:38.817Z,29.18
2023-03-07T03:29:05.208Z,29.08
2023-03-07T03:31:32.071Z,29.10
2023-03-07T03:33:58.588Z,29.20
2023-03-07T03:36:28.274Z,29.01
2023-03-07T03:38:55.171Z,29.22
2023-03-07T03:41:21.494Z,29.17
2023-03-07T03:43:48.080Z,29.26
2023-03-07T03:46:14.436Z,29.01
2023-03-07T03:48:40.827Z,28.87
2023-03-07T03:51:15.853Z,28.98
2023-03-07T03:53:42.221Z,28.89
2023-03-07T03:56:12.212Z,29.14
2023-03-07T03:58:38.573Z,29.21
2023-03-07T04:01:05.886Z,29.23
2023-03-07T04:03:35.649Z,29.19
2023-03-07T04:06:05.717Z,29.16
2023-03-07T04:08:32.190Z,29.35
2023-03-07T04:10:58.679Z,29.04
2023-03-07T04:13:25.092Z,29.11
2023-03-07T04:15:52.190Z,28.97
2023-03-07T04:18:18.730Z,29.11
2023-03-07T04:20:45.076Z,29.15
2023-03-07T04:23:11.615Z,29.04
2023-03-07T04:25:37.969Z,28.97
2023-03-07T04:28:04.287Z,29.19
2023-03-07T04:30:31.008Z,29.12
2023-03-07T04:32:57.319Z,29.10
2023-03-07T04:35:23.708Z,29.26
2023-03-07T04:37:50.612Z,29.19
2023-03-07T04:40:16.948Z,29.13
2023-03-07T04:42:43.293Z,29.06
2023-03-07T04:45:09.811Z,29.06
2023-03-07T04:47:36.127Z,28.89
2023-03-07T04:50:02.558Z,28.83
2023-03-07T04:52:28.863Z,29.03
2023-03-07T04:54:55.185Z,28.87
2023-03-07T04:57:21.487Z,29.06
2023-03-07T04:59:47.822Z,28.90
2023-03-07T05:02:14.190Z,28.88
2023-03-07T05:04:40.656Z,28.94
2023-03-07T05:07:07.064Z,28.91
2023-03-07T05:09:33.374Z,29.19
2023-03-07T05:11:59.931Z,29.36
2023-03-07T05:14:26.261Z,29.46
2023-03-07T05:16:52.854Z,29.29
2023-03-07T05:19:19.174Z,29.17
2023-03-07T05:21:47.502Z,29.22
2023-03-07T05:24:13.813Z,29.00
2023-03-07T05:26:40.687Z,28.98
2023-03-07T05:29:07.112Z,29.02
2023-03-07T05:31:33.517Z,29.13
2023-03-07T05:33:59.849Z,29.00
2023-03-07T05:36:26.472Z,29.08
2023-03-07T05:38:54.647Z,29.16
2023-03-07T05:41:20.969Z,29.12
2023-03-07T05:43:47.277Z,29.02
2023-03-07T05:46:13.937Z,29.05
2023-03-07T05:48:40.273Z,29.11
2023-03-07T05:51:06.621Z,29.03
2023-03-07T05:53:33.016Z,28.96
2023-03-07T05:55:59.345Z,29.08
2023-03-07T05:58:25.659Z,28.88
2023-03-07T06:00:51.992Z,29.02
2023-03-07T06:03:18.337Z,29.11
2023-03-07T06:05:44.672Z,29.11
2023-03-07T06:08:11.013Z,29.09
2023-03-07T06:10:40.031Z,29.07
2023-03-07T06:13:06.466Z,29.13
2023-03-07T06:15:32.841Z,29.16
2023-03-07T06:17:59.332Z,29.30
2023-03-07T06:20:25.661Z,29.12
2023-03-07T06:22:52.032Z,29.14
2023-03-07T06:25:21.581Z,29.12
2023-03-07T06:27:48.362Z,29.19
2023-03-07T06:30:14.706Z,29.12
2023-03-07T06:32:41.385Z,29.12
2023-03-07T06:35:07.961Z,29.10
2023-03-07T06:37:34.287Z,29.21
2023-03-07T06:40:00.855Z,29.21
2023-03-07T06:42:27.171Z,29.27
2023-03-07T06:44:53.501Z,29.24
2023-03-07T06:47:19.839Z,29.31
2023-03-07T06:49:46.167Z,29.17
2023-03-07T06:52:12.508Z,29.17
2023-03-07T06:54:39.063Z,29.03
2023-03-07T06:57:05.385Z,29.26
2023-03-07T06:59:31.773Z,29.24
2023-03-07T07:01:58.205Z,29.19
2023-03-07T07:04:24.626Z,29.11
2023-03-07T07:06:50.957Z,29.18
2023-03-07T07:09:17.276Z,29.12
2023-03-07T07:11:43.599Z,29.16
2023-03-07T07:14:09.914Z,29.18
2023-03-07T07:16:36.497Z,29.11
2023-03-07T07:19:03.132Z,29.33
2023-03-07T07:21:29.469Z,29.21
2023-03-07T07:23:56.369Z,29.26
2023-03-07T07:26:23.203Z,29.36
2023-03-07T07:28:49.548Z,29.27
2023-03-07T07:31:16.013Z,29.32
2023-03-07T07:33:42.528Z,29.28
2023-03-07T07:36:08.984Z,29.32
2023-03-07T07:38:35.491Z,29.34
2023-03-07T07:41:02.296Z,29.26
2023-03-07T07:43:29.639Z,29.29
2023-03-07T07:45:56.019Z,29.27
2023-03-07T07:48:22.368Z,29.05
2023-03-07T07:50:48.685Z,29.11
2023-03-07T07:53:17.018Z,29.79
2023-03-07T07:55:43.330Z,29.83
2023-03-07T07:58:09.660Z,29.66
2023-03-07T08:00:37.704Z,29.92
2023-03-07T08:03:05.582Z,29.78
2023-03-07T08:05:31.925Z,29.94
2023-03-07T08:07:58.239Z,30.02
2023-03-07T08:10:24.873Z,29.81
2023-03-07T08:12:54.220Z,30.08
2023-03-07T08:15:21.487Z,29.87
2023-03-07T08:17:48.750Z,29.90
2023-03-07T08:20:15.074Z,30.00
2023-03-07T08:22:41.427Z,30.03
2023-03-07T08:25:17.635Z,29.92
2023-03-07T08:27:43.948Z,29.88
2023-03-07T08:30:10.573Z,29.79
2023-03-07T08:32:36.908Z,29.88
2023-03-07T08:35:04.007Z,29.91
2023-03-07T08:37:30.323Z,29.84
2023-03-07T08:39:56.639Z,29.88
2023-03-07T08:42:23.035Z,29.75
2023-03-07T08:44:49.390Z,29.23
2023-03-07T08:47:15.706Z,29.69
2023-03-07T08:49:42.021Z,29.79
2023-03-07T08:52:08.353Z,29.88
2023-03-07T08:54:34.706Z,29.81
2023-03-07T08:57:01.273Z,30.05
2023-03-07T08:59:27.624Z,29.92
2023-03-07T09:01:54.820Z,29.68
2023-03-07T09:04:21.836Z,29.46
2023-03-07T09:06:50.492Z,29.71
2023-03-07T09:09:16.800Z,29.56
2023-03-07T09:11:43.361Z,29.60
2023-03-07T09:14:09.734Z,29.68
2023-03-07T09:16:36.080Z,29.61
2023-03-07T09:19:02.476Z,29.79
2023-03-07T09:21:28.811Z,29.50
2023-03-07T09:23:55.121Z,29.63
2023-03-07T09:26:21.551Z,29.58
2023-03-07T09:28:47.896Z,29.71
2023-03-07T09:31:14.315Z,29.62
2023-03-07T09:33:40.702Z,29.62
2023-03-07T09:36:07.571Z,29.54
2023-03-07T09:38:34.009Z,29.59
2023-03-07T09:41:23.342Z,29.58
2023-03-07T09:44:09.868Z,29.48
2023-03-07T09:46:45.238Z,29.50
2023-03-07T09:49:21.181Z,29.51
2023-03-07T09:51:50.755Z,29.40
2023-03-07T09:54:20.677Z,29.40
2023-03-07T09:56:54.433Z,29.51
2023-03-07T09:59:33.522Z,29.39
2023-03-07T10:02:12.866Z,29.50
2023-03-07T10:04:42.243Z,29.34
2023-03-07T10:07:08.940Z,29.50
2023-03-07T10:09:35.258Z,29.34
2023-03-07T10:12:10.954Z,29.48
2023-03-07T10:14:43.433Z,29.31
2023-03-07T10:17:22.978Z,29.28
2023-03-07T10:19:50.113Z,29.27
2023-03-07T10:22:18.945Z,29.36
2023-03-07T10:24:51.434Z,29.25
2023-03-07T10:27:17.754Z,29.43
2023-03-07T10:29:43.971Z,29.44
2023-03-07T10:32:29.831Z,29.31
2023-03-07T10:35:11.567Z,29.24
2023-03-07T10:37:43.924Z,29.23
2023-03-07T10:40:30.739Z,29.12
2023-03-07T10:42:57.106Z,29.15
2023-03-07T10:45:25.744Z,29.22
2023-03-07T10:47:52.042Z,29.46
2023-03-07T10:50:23.526Z,29.37
2023-03-07T10:52:53.787Z,29.29
2023-03-07T10:55:32.167Z,29.42
2023-03-07T10:58:14.747Z,29.27
2023-03-07T11:00:41.446Z,29.34
2023-03-07T11:03:27.215Z,29.45
2023-03-07T11:05:53.535Z,29.44
2023-03-07T11:08:20.759Z,29.60
2023-03-07T11:10:47.268Z,29.33
2023-03-07T11:13:17.187Z,30.18
2023-03-07T11:15:45.143Z,30.60
2023-03-07T11:18:30.397Z,30.56
2023-03-07T11:20:56.738Z,30.86
2023-03-07T11:23:24.065Z,30.62
2023-03-07T11:25:50.870Z,30.56
2023-03-07T11:28:23.294Z,30.58
2023-03-07T11:30:51.321Z,30.86
2023-03-07T11:33:20.725Z,30.67
2023-03-07T11:35:55.394Z,30.53
2023-03-07T11:38:29.909Z,30.60
2023-03-07T11:41:04.867Z,30.74
2023-03-07T11:43:41.366Z,30.50
2023-03-07T11:46:10.127Z,30.60
2023-03-07T11:48:52.479Z,30.74
2023-03-07T11:51:41.156Z,30.16
2023-03-07T11:54:25.644Z,30.13
2023-03-07T11:56:52.209Z,30.18
2023-03-07T11:59:37.411Z,30.21
2023-03-07T12:02:05.250Z,30.22
2023-03-07T12:04:38.607Z,30.28
2023-03-07T12:07:23.785Z,30.02
2023-03-07T12:09:54.387Z,28.56
2023-03-07T12:12:29.700Z,30.12
2023-03-07T12:14:55.943Z,29.70
2023-03-07T12:17:45.593Z,29.62
2023-03-07T12:20:25.964Z,29.57
2023-03-07T12:22:59.329Z,29.78
2023-03-07T12:25:31.651Z,29.72
2023-03-07T12:28:05.810Z,29.74
2023-03-07T12:30:50.802Z,29.82
2023-03-07T12:33:27.437Z,29.96
2023-03-07T12:35:55.325Z,29.96
2023-03-07T12:38:27.646Z,29.92
2023-03-07T12:41:01.768Z,29.81
2023-03-07T12:43:28.030Z,29.70
2023-03-07T12:46:14.565Z,29.55
2023-03-07T12:48:43.232Z,29.53
2023-03-07T12:51:11.332Z,29.57
2023-03-07T12:53:47.901Z,29.42
2023-03-07T12:56:27.974Z,29.57
2023-03-07T12:58:56.168Z,29.58
2023-03-07T13:01:27.295Z,29.62
2023-03-07T13:03:53.735Z,29.71
2023-03-07T13:06:20.490Z,29.59
2023-03-07T13:08:47.802Z,29.83
2023-03-07T13:11:18.211Z,29.77
2023-03-07T13:13:44.531Z,29.63
2023-03-07T13:16:11.314Z,29.92
2023-03-07T13:18:37.662Z,29.84
2023-03-07T13:21:22.636Z,29.81
2023-03-07T13:23:48.952Z,29.79
2023-03-07T13:26:15.681Z,29.76
2023-03-07T13:28:43.098Z,29.98
2023-03-07T13:31:15.253Z,29.90
2023-03-07T13:33:41.752Z,29.78
2023-03-07T13:36:26.509Z,30.02
2023-03-07T13:38:52.854Z,29.92
2023-03-07T13:41:39.073Z,29.92
2023-03-07T13:44:11.769Z,30.23
2023-03-07T13:46:38.010Z,30.08
2023-03-07T13:49:04.334Z,30.17
2023-03-07T13:51:30.661Z,30.15
2023-03-07T13:54:00.698Z,30.22
2023-03-07T13:56:28.823Z,30.15
2023-03-07T13:59:01.510Z,30.04
2023-03-07T14:01:30.953Z,30.13
2023-03-07T14:04:19.025Z,30.02
2023-03-07T14:06:52.193Z,29.93
2023-03-07T14:09:23.185Z,29.97
2023-03-07T14:12:00.331Z,29.96
2023-03-07T14:14:39.096Z,29.86
2023-03-07T14:17:17.664Z,30.00
2023-03-07T14:19:46.918Z,29.95
2023-03-07T14:22:13.166Z,29.81
2023-03-07T14:24:39.404Z,29.71
2023-03-07T14:27:06.249Z,29.88
2023-03-07T14:29:32.879Z,29.73
2023-03-07T14:31:59.354Z,29.86
2023-03-07T14:34:32.253Z,29.92
2023-03-07T14:36:59.493Z,29.80
2023-03-07T14:39:26.446Z,29.86
2023-03-07T14:41:56.503Z,29.87
2023-03-07T14:44:39.436Z,30.00
2023-03-07T14:47:05.796Z,29.95
2023-03-07T14:49:35.894Z,29.96
2023-03-07T14:52:02.499Z,29.90
2023-03-07T14:54:30.971Z,29.93
2023-03-07T14:56:57.349Z,29.90
2023-03-07T14:59:28.918Z,29.88
2023-03-07T15:01:56.209Z,30.14
2023-03-07T15:04:24.131Z,29.82
2023-03-07T15:06:54.581Z,29.51
2023-03-07T15:09:21.205Z,29.71
2023-03-07T15:11:50.110Z,29.63
2023-03-07T15:14:24.273Z,29.66
2023-03-07T15:16:50.998Z,29.66
2023-03-07T15:19:35.621Z,29.60
2023-03-07T15:22:02.450Z,29.54
2023-03-07T15:24:31.790Z,29.66
2023-03-07T15:26:59.466Z,29.63
2023-03-07T15:29:26.560Z,29.71
2023-03-07T15:32:15.965Z,29.58
2023-03-07T15:34:42.974Z,29.59
2023-03-07T15:37:24.914Z,29.61
2023-03-07T15:39:55.162Z,29.44
2023-03-07T15:42:21.642Z,29.57
2023-03-07T15:44:55.348Z,29.66
2023-03-07T15:47:21.662Z,29.64
2023-03-07T15:49:48.766Z,29.57
2023-03-07T15:52:27.244Z,29.60
2023-03-07T15:54:53.660Z,29.64
2023-03-07T15:57:40.184Z,29.62
2023-03-07T16:00:07.607Z,29.64
2023-03-07T16:02:38.473Z,29.61
2023-03-07T16:05:20.853Z,29.83
2023-03-07T16:07:47.417Z,29.69
2023-03-07T16:10:13.753Z,29.61
2023-03-07T16:12:46.281Z,29.48
2023-03-07T16:15:16.323Z,29.50
2023-03-07T16:17:42.634Z,29.38
2023-03-07T16:20:17.843Z,29.44
2023-03-07T16:22:44.596Z,29.43
2023-03-07T16:25:13.926Z,29.46
2023-03-07T16:27:41.097Z,29.53
2023-03-07T16:30:13.856Z,29.65
2023-03-07T16:32:40.600Z,29.56
2023-03-07T16:35:13.446Z,29.52
2023-03-07T16:37:39.815Z,29.60
2023-03-07T16:40:08.265Z,29.50
2023-03-07T16:42:34.781Z,29.41
2023-03-07T16:45:01.095Z,29.38
2023-03-07T16:47:27.482Z,29.46
2023-03-07T16:49:53.791Z,29.57
2023-03-07T16:52:23.460Z,29.53
2023-03-07T16:54:49.784Z,29.54
2023-03-07T16:57:16.100Z,29.46
2023-03-07T16:59:44.388Z,29.55
2023-03-07T17:02:11.710Z,29.43
2023-03-07T17:04:38.306Z,29.32
2023-03-07T17:07:05.557Z,29.41
2023-03-07T17:09:31.895Z,29.33
2023-03-07T17:11:58.311Z,29.48
2023-03-07T17:14:24.653Z,29.46
2023-03-07T17:16:50.976Z,29.39
2023-03-07T17:19:19.724Z,29.22
2023-03-07T17:21:46.056Z,29.33
2023-03-07T17:24:12.535Z,29.42
2023-03-07T17:26:39.527Z,29.72
2023-03-07T17:29:08.101Z,29.29
2023-03-07T17:31:34.406Z,29.68
2023-03-07T17:34:00.733Z,29.67
2023-03-07T17:36:27.037Z,29.46
2023-03-07T17:38:53.394Z,29.54
2023-03-07T17:41:19.703Z,29.61
2023-03-07T17:43:46.031Z,29.44
2023-03-07T17:46:12.446Z,29.51
2023-03-07T17:48:38.836Z,29.16
2023-03-07T17:51:09.316Z,29.25
2023-03-07T17:53:35.884Z,29.18
2023-03-07T17:56:06.594Z,29.17
2023-03-07T17:58:32.901Z,28.96
2023-03-07T18:00:59.227Z,29.06
2023-03-07T18:03:25.571Z,29.13
2023-03-07T18:05:52.247Z,28.91
2023-03-07T18:08:18.574Z,28.86
2023-03-07T18:10:44.939Z,29.08
2023-03-07T18:13:11.403Z,28.90
2023-03-07T18:15:38.112Z,28.64
2023-03-07T18:18:06.286Z,28.74
2023-03-07T18:20:33.118Z,28.69
2023-03-07T18:22:59.423Z,28.61
2023-03-07T18:25:25.784Z,28.53
2023-03-07T18:27:52.093Z,28.63
2023-03-07T18:30:18.408Z,28.87
2023-03-07T18:32:45.203Z,28.73
2023-03-07T18:35:11.839Z,28.73
2023-03-07T18:37:38.880Z,29.05
2023-03-07T18:40:05.401Z,28.86
2023-03-07T18:42:32.461Z,28.75
2023-03-07T18:44:58.807Z,28.88
2023-03-07T18:47:25.125Z,28.87
2023-03-07T18:49:52.120Z,28.86
2023-03-07T18:52:18.760Z,29.00
2023-03-07T18:54:45.117Z,28.93
2023-03-07T18:57:11.427Z,29.36
2023-03-07T18:59:37.748Z,29.77
2023-03-07T19:02:04.068Z,29.97
2023-03-07T19:04:31.395Z,29.98
2023-03-07T19:06:59.606Z,30.36
2023-03-07T19:09:26.474Z,30.11
2023-03-07T19:11:52.816Z,30.34
2023-03-07T19:14:19.146Z,30.62
2023-03-07T19:16:45.511Z,31.20
2023-03-07T19:19:11.871Z,31.50
2023-03-07T19:21:38.242Z,31.25
2023-03-07T19:24:05.707Z,31.15
2023-03-07T19:26:32.271Z,31.12
2023-03-07T19:28:58.626Z,30.74
2023-03-07T19:31:28.395Z,31.09
2023-03-07T19:36:21.775Z,30.97
2023-03-07T19:38:48.750Z,31.05
2023-03-07T19:41:15.469Z,30.77
2023-03-07T19:46:08.623Z,31.06
2023-03-07T19:48:35.268Z,31.07
2023-03-07T19:51:01.582Z,31.31
2023-03-07T19:53:27.892Z,31.31
2023-03-07T19:55:54.205Z,31.18
2023-03-07T20:00:46.778Z,30.98
2023-03-07T20:03:13.574Z,30.95
2023-03-07T20:05:40.600Z,30.83
2023-03-07T20:08:06.920Z,30.86
2023-03-07T20:10:33.486Z,30.24
2023-03-07T20:12:59.806Z,30.02
2023-03-07T20:15:26.169Z,30.00
2023-03-07T20:17:52.728Z,29.59
2023-03-07T20:20:19.069Z,29.76
2023-03-07T20:22:45.411Z,29.62
2023-03-07T20:25:11.735Z,29.57
2023-03-07T20:27:38.065Z,29.39
2023-03-07T20:30:04.646Z,29.34
2023-03-07T20:32:31.399Z,29.34
2023-03-07T20:35:03.301Z,29.14
2023-03-07T20:37:32.465Z,29.19
2023-03-07T20:39:59.134Z,29.08
2023-03-07T20:42:25.654Z,28.93
2023-03-07T20:44:52.098Z,29.02
2023-03-07T20:47:18.689Z,29.02
2023-03-07T20:49:45.011Z,28.84
2023-03-07T20:52:11.323Z,28.59
2023-03-07T20:54:37.772Z,28.86
2023-03-07T20:57:04.113Z,28.81
2023-03-07T20:59:30.448Z,28.79
2023-03-07T21:01:56.863Z,28.40
2023-03-07T21:04:23.317Z,28.40
2023-03-07T21:06:49.663Z,28.59
2023-03-07T21:09:16.417Z,28.65
2023-03-07T21:11:45.234Z,28.42
2023-03-07T21:14:11.891Z,28.31
2023-03-07T21:16:38.316Z,28.48
2023-03-07T21:19:05.064Z,28.46
2023-03-07T21:21:31.786Z,28.49
2023-03-07T21:23:58.107Z,28.48
2023-03-07T21:26:25.197Z,28.37
2023-03-07T21:28:51.642Z,28.15
2023-03-07T21:31:19.024Z,28.59
2023-03-07T21:33:46.303Z,28.60
2023-03-07T21:36:14.446Z,28.67
2023-03-07T21:38:40.929Z,28.35
2023-03-07T21:41:07.295Z,28.77
2023-03-07T21:43:33.935Z,28.63
2023-03-07T21:46:06.967Z,28.25
2023-03-07T21:48:33.462Z,28.72
2023-03-07T21:51:00.919Z,28.27
2023-03-07T21:53:27.248Z,28.24
2023-03-07T21:55:54.276Z,28.40
2023-03-07T21:58:21.079Z,28.29
2023-03-07T22:00:47.731Z,28.44
2023-03-07T22:03:14.358Z,28.59
2023-03-07T22:05:40.687Z,28.42
2023-03-07T22:08:06.995Z,28.49
2023-03-07T22:10:33.443Z,28.21
2023-03-07T22:12:59.761Z,28.34
2023-03-07T22:15:26.063Z,28.40
2023-03-07T22:17:52.503Z,28.21
2023-03-07T22:20:18.830Z,28.23
2023-03-07T22:22:45.142Z,28.40
2023-03-07T22:25:11.449Z,28.62
2023-03-07T22:27:37.763Z,28.37
2023-03-07T22:30:04.686Z,28.86
2023-03-07T22:32:31.036Z,28.72
2023-03-07T22:34:57.354Z,28.48
2023-03-07T22:37:23.690Z,28.74
2023-03-07T22:39:50.027Z,28.54
2023-03-07T22:42:16.381Z,28.58
2023-03-07T22:44:42.689Z,28.50
2023-03-07T22:47:09.248Z,28.90
2023-03-07T22:49:35.736Z,28.41
2023-03-07T22:52:02.117Z,28.46
2023-03-07T22:54:28.432Z,28.55
2023-03-07T22:56:54.761Z,28.57
2023-03-07T22:59:21.099Z,28.75
2023-03-07T23:01:48.478Z,28.70
2023-03-07T23:04:14.870Z,28.54
2023-03-07T23:06:41.260Z,28.44
2023-03-07T23:09:07.694Z,28.54
2023-03-07T23:11:34.031Z,28.56
2023-03-07T23:14:00.427Z,28.56
2023-03-07T23:16:28.118Z,28.50
2023-03-07T23:18:55.213Z,28.69
2023-03-07T23:21:22.239Z,28.57
2023-03-07T23:23:48.544Z,28.71
2023-03-07T23:26:18.504Z,28.53
2023-03-07T23:28:44.825Z,28.68
2023-03-07T23:31:17.239Z,28.47
2023-03-07T23:33:43.829Z,28.33
2023-03-07T23:36:10.688Z,28.58
2023-03-07T23:38:37.025Z,28.36
2023-03-07T23:41:03.653Z,27.98
2023-03-07T23:43:29.967Z,28.06
2023-03-07T23:45:56.462Z,28.06
2023-03-07T23:48:23.229Z,28.00
2023-03-07T23:50:49.600Z,27.89
2023-03-07T23:53:15.908Z,27.84
2023-03-07T23:55:42.304Z,27.84
2023-03-07T23:58:08.636Z,28.21
